createdAt,value
2023-04-15T00:03:59.284Z,989.33
2023-04-15T00:09:03.565Z,989.33
2023-04-15T00:14:07.564Z,989.38
2023-04-15T00:19:12.136Z,989.38
2023-04-15T00:24:15.875Z,989.31
2023-04-15T00:29:20.018Z,989.33
2023-04-15T00:34:24.223Z,989.38
2023-04-15T00:39:28.396Z,989.27
2023-04-15T00:44:32.544Z,989.18
2023-04-15T00:49:34.815Z,989.26
2023-04-15T00:54:38.994Z,989.18
2023-04-15T00:59:43.145Z,989.16
2023-04-15T01:09:51.485Z,989.21
2023-04-15T01:14:53.765Z,989.29
2023-04-15T01:19:57.913Z,989.32
2023-04-15T01:25:02.132Z,989.36
2023-04-15T01:30:06.327Z,989.32
2023-04-15T01:35:10.402Z,989.27
2023-04-15T01:40:14.537Z,989.22
2023-04-15T01:45:18.732Z,989.27
2023-04-15T01:50:22.877Z,989.20
2023-04-15T01:55:27.049Z,989.21
2023-04-15T02:00:31.219Z,989.05
2023-04-15T02:05:35.381Z,988.98
2023-04-15T02:10:39.534Z,988.97
2023-04-15T02:15:43.703Z,988.90
2023-04-15T02:20:47.872Z,988.88
2023-04-15T02:25:53.414Z,988.88
2023-04-15T02:30:56.216Z,988.93
2023-04-15T02:36:00.383Z,988.80
2023-04-15T02:41:04.581Z,988.71
2023-04-15T02:46:08.741Z,988.64
2023-04-15T02:51:12.850Z,988.70
2023-04-15T02:56:17.045Z,988.64
2023-04-15T03:01:19.354Z,988.69
2023-04-15T03:06:23.462Z,988.75
2023-04-15T03:11:25.730Z,988.78
2023-04-15T03:16:29.911Z,988.61
2023-04-15T03:21:34.240Z,988.64
2023-04-15T03:26:38.245Z,988.76
2023-04-15T03:31:42.379Z,988.72
2023-04-15T03:36:46.575Z,988.72
2023-04-15T03:41:50.747Z,988.72
2023-04-15T03:46:54.951Z,988.73
2023-04-15T03:51:59.094Z,988.74
2023-04-15T03:57:03.229Z,988.81
2023-04-15T04:02:07.670Z,988.78
2023-04-15T04:07:11.586Z,988.80
2023-04-15T04:12:15.718Z,988.75
2023-04-15T04:17:19.903Z,988.75
2023-04-15T04:22:24.052Z,988.70
2023-04-15T04:27:28.223Z,988.73
2023-04-15T04:32:32.531Z,988.76
2023-04-15T04:37:36.538Z,988.75
2023-04-15T04:42:40.717Z,988.81
2023-04-15T04:47:44.979Z,988.76
2023-04-15T04:52:49.047Z,988.89
2023-04-15T04:57:51.326Z,988.82
2023-04-15T05:02:55.626Z,988.80
2023-04-15T05:07:57.776Z,988.71
2023-04-15T05:13:01.984Z,988.73
2023-04-15T05:18:06.118Z,988.72
2023-04-15T05:23:10.289Z,988.75
2023-04-15T05:28:14.398Z,988.74
2023-04-15T05:33:18.605Z,988.71
2023-04-15T05:38:22.767Z,988.66
2023-04-15T05:43:26.917Z,988.74
2023-04-15T05:48:31.083Z,988.77
2023-04-15T05:53:35.246Z,988.77
2023-04-15T05:58:39.415Z,988.77
2023-04-15T06:03:43.679Z,988.76
2023-04-15T06:08:47.736Z,988.84
2023-04-15T06:13:51.927Z,988.75
2023-04-15T06:18:56.107Z,988.69
2023-04-15T06:24:00.248Z,988.54
2023-04-15T06:29:04.365Z,988.65
2023-04-15T06:34:08.580Z,988.74
2023-04-15T06:39:12.792Z,988.70
2023-04-15T06:44:18.002Z,988.76
2023-04-15T06:49:21.079Z,988.75
2023-04-15T06:54:23.310Z,988.71
2023-04-15T06:59:27.510Z,988.69
2023-04-15T07:04:29.838Z,988.70
2023-04-15T07:09:33.921Z,988.79
2023-04-15T07:14:38.109Z,988.87
2023-04-15T07:19:42.268Z,988.91
2023-04-15T07:24:46.441Z,988.91
2023-04-15T07:29:50.593Z,989.00
2023-04-15T07:34:54.757Z,989.11
2023-04-15T07:39:58.923Z,989.25
2023-04-15T07:45:03.167Z,989.39
2023-04-15T07:50:07.489Z,989.57
2023-04-15T07:55:11.465Z,989.75
2023-04-15T08:00:15.588Z,989.86
2023-04-15T08:05:19.850Z,990.04
2023-04-15T08:10:23.917Z,990.07
2023-04-15T08:15:28.049Z,990.09
2023-04-15T08:20:32.231Z,990.13
2023-04-15T08:25:36.397Z,990.18
2023-04-15T08:30:40.546Z,990.16
2023-04-15T08:35:44.684Z,990.28
2023-04-15T08:40:48.866Z,990.33
2023-04-15T08:45:53.015Z,990.36
2023-04-15T08:50:55.285Z,990.40
2023-04-15T08:55:59.473Z,990.39
2023-04-15T09:01:01.821Z,990.26
2023-04-15T09:06:05.883Z,990.25
2023-04-15T09:11:10.066Z,990.29
2023-04-15T09:16:14.290Z,990.42
2023-04-15T09:21:18.389Z,990.46
2023-04-15T09:26:22.521Z,990.55
2023-04-15T09:36:30.868Z,990.97
2023-04-15T09:41:34.982Z,991.03
2023-04-15T09:46:39.195Z,991.05
2023-04-15T09:51:51.200Z,991.08
2023-04-15T09:56:47.485Z,991.23
2023-04-15T10:01:51.796Z,991.28
2023-04-15T10:06:55.834Z,991.39
2023-04-15T10:11:59.970Z,991.33
2023-04-15T10:17:04.152Z,991.39
2023-04-15T10:22:08.318Z,991.46
2023-04-15T10:27:12.467Z,991.55
2023-04-15T10:32:16.606Z,991.61
2023-04-15T10:37:20.799Z,991.73
2023-04-15T10:42:24.939Z,991.79
2023-04-15T10:47:27.276Z,991.86
2023-04-15T10:52:31.349Z,992.04
2023-04-15T10:57:35.560Z,992.12
2023-04-15T11:02:39.931Z,992.24
2023-04-15T11:07:43.856Z,992.35
2023-04-15T11:12:48.049Z,992.45
2023-04-15T11:17:52.226Z,992.48
2023-04-15T11:23:14.066Z,992.53
2023-04-15T11:28:00.534Z,992.57
2023-04-15T11:33:04.698Z,992.71
2023-04-15T11:38:08.843Z,992.71
2023-04-15T11:43:13.016Z,992.78
2023-04-15T11:48:17.151Z,992.95
2023-04-15T11:53:21.322Z,992.89
2023-04-15T11:58:25.488Z,992.99
2023-04-15T12:03:29.976Z,993.06
2023-04-15T12:08:33.781Z,993.15
2023-04-15T12:13:37.971Z,993.20
2023-04-15T12:18:42.261Z,993.27
2023-04-15T12:23:46.276Z,993.42
2023-04-15T12:28:50.454Z,993.50
2023-04-15T12:33:52.774Z,993.65
2023-04-15T12:38:56.913Z,993.76
2023-04-15T12:43:59.158Z,993.77
2023-04-15T12:49:03.315Z,993.87
2023-04-15T12:54:07.530Z,993.92
2023-04-15T12:59:09.765Z,993.96
2023-04-15T13:04:13.984Z,994.02
2023-04-15T13:09:18.114Z,993.99
2023-04-15T13:14:22.254Z,994.18
2023-04-15T13:19:26.442Z,994.16
2023-04-15T13:24:30.573Z,994.13
2023-04-15T13:29:34.776Z,994.23
2023-04-15T13:34:38.900Z,994.26
2023-04-15T13:39:43.054Z,994.30
2023-04-15T13:44:47.191Z,994.29
2023-04-15T13:49:51.379Z,994.35
2023-04-15T13:55:07.301Z,994.46
2023-04-15T13:59:59.683Z,994.57
2023-04-15T14:05:03.863Z,994.57
2023-04-15T14:10:08.016Z,994.75
2023-04-15T14:15:12.166Z,994.76
2023-04-15T14:20:17.370Z,994.77
2023-04-15T14:25:32.859Z,994.88
2023-04-15T14:30:24.659Z,994.89
2023-04-15T14:35:28.835Z,994.96
2023-04-15T14:40:32.982Z,994.92
2023-04-15T14:45:35.265Z,994.99
2023-04-15T14:50:39.438Z,995.04
2023-04-15T14:55:41.668Z,995.17
2023-04-15T15:00:45.891Z,995.24
2023-04-15T15:05:50.126Z,995.22
2023-04-15T15:10:54.206Z,995.18
2023-04-15T15:15:58.368Z,995.29
2023-04-15T15:21:02.515Z,995.30
2023-04-15T15:26:06.687Z,995.32
2023-04-15T15:31:10.853Z,995.35
2023-04-15T15:36:14.976Z,995.30
2023-04-15T15:41:19.149Z,995.26
2023-04-15T15:46:23.333Z,995.25
2023-04-15T15:51:27.457Z,995.43
2023-04-15T15:56:31.628Z,995.48
2023-04-15T16:01:35.794Z,995.46
2023-04-15T16:06:40.138Z,995.51
2023-04-15T16:11:44.113Z,995.48
2023-04-15T16:16:48.294Z,995.57
2023-04-15T16:21:52.460Z,995.50
2023-04-15T16:26:56.614Z,995.53
2023-04-15T16:32:00.797Z,995.52
2023-04-15T16:37:04.919Z,995.49
2023-04-15T16:42:07.226Z,995.54
2023-04-15T16:47:11.333Z,995.49
2023-04-15T16:52:15.552Z,995.44
2023-04-15T16:57:19.701Z,995.43
2023-04-15T17:02:23.923Z,995.39
2023-04-15T17:07:26.117Z,995.42
2023-04-15T17:12:30.274Z,995.42
2023-04-15T17:17:34.469Z,995.42
2023-04-15T17:22:38.612Z,995.35
2023-04-15T17:27:42.784Z,995.30
2023-04-15T17:32:46.994Z,995.33
2023-04-15T17:37:51.071Z,995.26
2023-04-15T17:42:55.235Z,995.25
2023-04-15T17:47:59.456Z,995.29
2023-04-15T17:53:03.608Z,995.35
2023-04-15T17:58:07.744Z,995.30
2023-04-15T18:03:12.090Z,995.28
2023-04-15T18:08:16.075Z,995.27
2023-04-15T18:13:20.248Z,995.31
2023-04-15T18:18:24.387Z,995.28
2023-04-15T18:23:28.574Z,995.32
2023-04-15T18:28:32.738Z,995.41
2023-04-15T18:33:36.875Z,995.46
2023-04-15T18:38:41.058Z,995.55
2023-04-15T18:43:45.202Z,995.53
2023-04-15T18:48:49.381Z,995.50
2023-04-15T18:53:51.649Z,995.55
2023-04-15T18:59:22.918Z,995.59
2023-04-15T19:03:58.186Z,995.69
2023-04-15T19:09:02.277Z,995.63
2023-04-15T19:14:06.370Z,995.57
2023-04-15T19:19:10.529Z,995.60
2023-04-15T19:24:14.727Z,995.64
2023-04-15T19:29:18.859Z,995.70
2023-04-15T19:34:23.058Z,995.70
2023-04-15T19:39:27.173Z,995.68
2023-04-15T19:44:31.383Z,995.75
2023-04-15T19:49:35.561Z,995.79
2023-04-15T19:54:39.736Z,995.82
2023-04-15T19:59:43.870Z,995.65
2023-04-15T20:04:48.007Z,995.70
2023-04-15T20:09:52.164Z,995.72
2023-04-15T20:14:56.373Z,995.73
2023-04-15T20:20:00.509Z,995.88
2023-04-15T20:25:04.836Z,995.93
2023-04-15T20:30:08.821Z,996.01
2023-04-15T20:35:12.977Z,995.94
2023-04-15T20:40:17.176Z,995.97
2023-04-15T20:45:21.292Z,995.94
2023-04-15T20:50:23.587Z,995.91
2023-04-15T20:55:29.553Z,995.78
2023-04-15T21:00:31.944Z,995.94
2023-04-15T21:05:36.075Z,995.93
2023-04-15T21:10:40.268Z,995.89
2023-04-15T21:15:44.382Z,995.99
2023-04-15T21:20:48.555Z,996.02
2023-04-15T21:25:52.746Z,996.03
2023-04-15T21:30:58.960Z,996.00
2023-04-15T21:36:01.058Z,996.10
2023-04-15T21:41:05.184Z,996.25
2023-04-15T21:46:22.539Z,996.31
2023-04-15T21:56:17.709Z,996.42
2023-04-15T22:01:21.898Z,996.49
2023-04-15T22:06:26.026Z,996.45
2023-04-15T22:11:30.206Z,996.46
2023-04-15T22:16:34.364Z,996.54
2023-04-15T22:21:38.542Z,996.56
2023-04-15T22:26:42.680Z,996.58
2023-04-15T22:31:46.850Z,996.66
2023-04-15T22:36:50.996Z,996.72
2023-04-15T22:41:53.244Z,996.76
2023-04-15T22:46:57.406Z,996.80
2023-04-15T22:51:59.724Z,996.83
2023-04-15T22:57:03.866Z,996.77
2023-04-15T23:02:08.250Z,996.80
2023-04-15T23:07:12.208Z,996.84
2023-04-15T23:12:16.353Z,996.86
2023-04-15T23:17:20.526Z,996.90
2023-04-15T23:22:24.653Z,996.86
2023-04-15T23:27:28.849Z,996.95
2023-04-15T23:32:33.034Z,996.86
2023-04-15T23:37:37.193Z,996.90
2023-04-15T23:42:41.333Z,996.74
2023-04-15T23:47:45.519Z,996.81
2023-04-15T23:52:47.742Z,996.86
2023-04-15T23:57:51.931Z,996.81
